Flag for Spain

Past Weather in 40°25'13.0"N, 3°42'12.3"W, Spain — Yesterday and Last 2 Weeks

Currently: 43 °F. Passing clouds. (Weather station: Madrid / Cuatro Vientos, Spain). See more current weather

Past Weather in 40°25'13.0"N, 3°42'12.3"W — Graph

°F

40°25'13.0"N, 3°42'12.3"W Temperature Yesterday

Maximum temperature yesterday: 54 °F (at 2:30 pm)
Minimum temperature yesterday: 36 °F (at 7:30 am)
Average temperature yesterday: 45 °F

High & Low Weather Summary for the Past Weeks

 TemperatureHumidityPressure
High64 °F (Feb 18, 5:00 pm)100% (Feb 24, 5:30 am)30.60 "Hg (Feb 24, 5:30 am)
Low32 °F (Feb 28, 7:30 am)34% (Feb 17, 5:00 pm)29.65 "Hg (Feb 26, 4:30 am)
Average48 °F68%30.14 "Hg
* Reported Feb 16 3:30 am — Mar 2 3:00 am, 40°25'13.0"N, 3°42'12.3"W. Weather by CustomWeather, © 2024

Note: Actual official high and low records may vary slightly from our data, if they occured in-between our weather recording intervals... More about our weather records

40°25'13.0"N, 3°42'12.3"W Weather History for the Previous 24 Hours

Scroll right to see more
 ConditionsComfort  
Time TempWeatherWind HumidityBarometerVisibility
3:00 am
Sat, Mar 2
43 °FClear.15 mph93%29.89 "Hg10 mi
2:30 am43 °FPassing clouds.13 mph93%29.89 "HgN/A
2:00 am43 °FClear.15 mph87%29.92 "Hg10 mi
1:30 am43 °FClear.14 mph87%29.89 "Hg10 mi
1:00 am43 °FClear.13 mph87%29.92 "Hg10 mi
12:30 am43 °FClear.7 mph81%29.92 "Hg10 mi
12:00 am45 °FClear.10 mph76%29.95 "Hg10 mi
11:30 pm
Fri, Mar 1
45 °FClear.15 mph81%29.95 "Hg10 mi
11:00 pm45 °FClear.13 mph81%29.95 "Hg10 mi
10:30 pm45 °FClear.13 mph81%29.95 "Hg10 mi
10:00 pm46 °FPassing clouds.12 mph76%29.98 "HgN/A
9:30 pm46 °FPassing clouds.10 mph76%29.98 "HgN/A
9:00 pm46 °FPassing clouds.9 mph76%29.98 "HgN/A
8:30 pm48 °FOvercast.12 mph66%29.98 "HgN/A
8:00 pm48 °FPassing clouds.10 mph66%29.98 "HgN/A
7:30 pm50 °FPassing clouds.10 mph62%29.98 "HgN/A
7:00 pm50 °FPassing clouds.13 mph58%29.98 "HgN/A
6:30 pm50 °FPassing clouds.14 mph54%29.98 "HgN/A
6:00 pm50 °FPartly sunny.14 mph54%29.98 "HgN/A
5:30 pm52 °FPartly sunny.13 mph54%29.98 "HgN/A
5:00 pm52 °FPartly sunny.16 mph50%29.98 "HgN/A
4:30 pm52 °FScattered clouds.16 mph50%29.98 "HgN/A
4:00 pm54 °FPassing clouds.14 mph51%30.01 "HgN/A
3:30 pm54 °FPassing clouds.15 mph47%30.01 "HgN/A
3:00 pm54 °FPassing clouds.13 mph54%30.01 "HgN/A
2:30 pm54 °FPassing clouds.16 mph54%30.04 "HgN/A
1:30 pm52 °FPassing clouds.14 mph50%30.07 "HgN/A
1:00 pm52 °FScattered clouds.14 mph54%30.07 "HgN/A
12:30 pm48 °FScattered clouds.8 mph58%30.09 "HgN/A
12:00 pm48 °FPassing clouds.10 mph58%30.09 "HgN/A
11:30 am46 °FPassing clouds.9 mph62%30.09 "HgN/A
11:00 am45 °FSunny.15 mph61%30.12 "Hg10 mi
10:30 am43 °FPassing clouds.15 mph66%30.12 "HgN/A
10:00 am41 °FSunny.17 mph66%30.12 "Hg10 mi
9:30 am39 °FSunny.17 mph65%30.12 "Hg10 mi
9:00 am39 °FPassing clouds.13 mph65%30.12 "HgN/A
8:30 am37 °FPassing clouds.12 mph70%30.12 "HgN/A
8:00 am36 °FPassing clouds.16 mph70%30.12 "HgN/A
7:30 am36 °FClear.16 mph75%30.12 "Hg10 mi
7:00 am37 °FPassing clouds.12 mph65%30.12 "HgN/A
6:30 am37 °FPassing clouds.14 mph65%30.09 "HgN/A
6:00 am39 °FClear.8 mph56%30.09 "Hg10 mi
5:30 am39 °FPassing clouds.15 mph56%30.07 "HgN/A
5:00 am39 °FPassing clouds.20 mph56%30.09 "HgN/A
4:30 am37 °FPassing clouds.10 mph65%30.09 "HgN/A
4:00 am39 °FPassing clouds.15 mph56%30.07 "HgN/A
Weather by CustomWeather, © 2024

See weather overview